createdAt,value
2015-05-03T00:00:18.215Z,0
2015-05-03T00:00:36.559Z,0
2015-05-03T00:00:54.890Z,0
2015-05-03T00:01:13.218Z,0
2015-05-03T00:01:31.547Z,0
2015-05-03T00:01:49.890Z,0
2015-05-03T00:02:08.220Z,0
2015-05-03T00:02:26.549Z,0
2015-05-03T00:02:44.908Z,0
2015-05-03T00:03:03.255Z,0
2015-05-03T00:03:21.583Z,0
2015-05-03T00:03:39.911Z,0
2015-05-03T00:03:58.239Z,0
2015-05-03T00:04:16.569Z,0
2015-05-03T00:04:34.913Z,0
2015-05-03T00:04:53.241Z,0
2015-05-03T00:05:11.572Z,0
2015-05-03T00:05:29.932Z,0
2015-05-03T00:05:48.307Z,0
2015-05-03T00:06:06.635Z,0
2015-05-03T00:06:24.965Z,0
2015-05-03T00:06:43.293Z,0
2015-05-03T00:07:01.637Z,0
2015-05-03T00:07:19.967Z,0
2015-05-03T00:07:38.279Z,0
2015-05-03T00:07:56.623Z,0
2015-05-03T00:08:14.938Z,0
2015-05-03T00:08:33.297Z,0
2015-05-03T00:08:51.656Z,0
2015-05-03T00:09:09.969Z,0
2015-05-03T00:09:28.300Z,0
2015-05-03T00:09:46.659Z,0
2015-05-03T00:10:04.972Z,0
2015-05-03T00:10:23.318Z,0
2015-05-03T00:10:41.646Z,0
2015-05-03T00:10:59.974Z,0
2015-05-03T00:11:18.305Z,0
2015-05-03T00:11:36.649Z,0
2015-05-03T00:11:54.977Z,0
2015-05-03T00:12:13.321Z,0
2015-05-03T00:12:31.682Z,0
2015-05-03T00:12:50.026Z,0
2015-05-03T00:13:08.354Z,0
2015-05-03T00:13:26.716Z,0
2015-05-03T00:13:45.044Z,0
2015-05-03T00:14:03.372Z,0
2015-05-03T00:14:21.749Z,0
2015-05-03T00:14:40.093Z,0
2015-05-03T00:14:58.421Z,0
2015-05-03T00:15:16.749Z,0
2015-05-03T00:15:35.095Z,0
2015-05-03T00:15:53.423Z,0
2015-05-03T00:16:11.767Z,0
2015-05-03T00:16:30.097Z,0
2015-05-03T00:16:48.441Z,0
2015-05-03T00:17:06.800Z,0
2015-05-03T00:17:25.131Z,0
2015-05-03T00:17:43.475Z,0
2015-05-03T00:18:01.788Z,0
2015-05-03T00:18:20.147Z,0
2015-05-03T00:18:38.477Z,0
2015-05-03T00:18:56.821Z,0
2015-05-03T00:19:15.149Z,0
2015-05-03T00:19:33.526Z,0
2015-05-03T00:19:51.854Z,0
2015-05-03T00:20:10.229Z,0
2015-05-03T00:20:28.528Z,0
2015-05-03T00:20:46.887Z,0
2015-05-03T00:21:05.216Z,0
2015-05-03T00:21:23.591Z,0
2015-05-03T00:21:41.984Z,0
2015-05-03T00:22:00.312Z,0
2015-05-03T00:22:18.640Z,0
2015-05-03T00:22:36.955Z,0
2015-05-03T00:22:55.283Z,0
2015-05-03T00:23:13.642Z,0
2015-05-03T00:23:31.974Z,0
2015-05-03T00:23:50.333Z,0
2015-05-03T00:24:08.677Z,0
2015-05-03T00:24:26.989Z,0
2015-05-03T00:24:45.319Z,0
2015-05-03T00:25:03.663Z,0
2015-05-03T00:25:22.007Z,0
2015-05-03T00:25:40.353Z,0
2015-05-03T00:25:58.696Z,0
2015-05-03T00:26:17.040Z,0
2015-05-03T00:26:35.371Z,0
2015-05-03T00:26:53.699Z,0
2015-05-03T00:27:12.043Z,0
2015-05-03T00:27:30.402Z,0
2015-05-03T00:27:48.608Z,0
2015-05-03T00:28:06.936Z,0
2015-05-03T00:28:25.108Z,0
2015-05-03T00:28:43.454Z,0
2015-05-03T00:29:01.829Z,0
2015-05-03T00:29:20.517Z,0
2015-05-03T00:29:38.876Z,0
2015-05-03T00:29:57.066Z,0
2015-05-03T00:30:15.972Z,0
2015-05-03T00:30:34.097Z,0
2015-05-03T00:30:52.459Z,0
2015-05-03T00:31:10.803Z,0
2015-05-03T00:31:29.116Z,0
2015-05-03T00:31:47.475Z,0
2015-05-03T00:32:05.852Z,0
2015-05-03T00:32:24.196Z,0
2015-05-03T00:32:42.414Z,0
2015-05-03T00:33:00.761Z,0
2015-05-03T00:33:19.136Z,0
2015-05-03T00:33:37.496Z,0
2015-05-03T00:33:55.824Z,0
2015-05-03T00:34:14.169Z,0
2015-05-03T00:34:32.529Z,0
2015-05-03T00:34:50.732Z,0
2015-05-03T00:35:08.954Z,0
2015-05-03T00:35:27.266Z,0
2015-05-03T00:35:45.626Z,0
2015-05-03T00:36:03.954Z,0
2015-05-03T00:36:22.346Z,0
2015-05-03T00:36:40.706Z,0
2015-05-03T00:36:59.034Z,0
2015-05-03T00:37:17.380Z,0
2015-05-03T00:37:35.708Z,0
2015-05-03T00:37:54.051Z,0
2015-05-03T00:38:12.398Z,0
2015-05-03T00:38:30.726Z,0
2015-05-03T00:38:49.054Z,0
2015-05-03T00:39:07.414Z,0
2015-05-03T00:39:25.759Z,0
2015-05-03T00:39:43.930Z,0
2015-05-03T00:40:02.274Z,0
2015-05-03T00:40:20.605Z,0
2015-05-03T00:40:38.918Z,0
2015-05-03T00:40:57.230Z,0
2015-05-03T00:41:15.560Z,0
2015-05-03T00:41:33.967Z,0
2015-05-03T00:41:52.310Z,0
2015-05-03T00:42:10.623Z,0
2015-05-03T00:42:28.970Z,0
2015-05-03T00:42:47.282Z,0
2015-05-03T00:43:05.610Z,0
2015-05-03T00:43:24.003Z,0
2015-05-03T00:43:42.315Z,0
2015-05-03T00:44:00.675Z,0
2015-05-03T00:44:19.022Z,0
2015-05-03T00:44:37.365Z,0
2015-05-03T00:44:55.678Z,0
2015-05-03T00:45:14.022Z,0
2015-05-03T00:45:32.352Z,0
2015-05-03T00:45:50.711Z,0
2015-05-03T00:46:09.039Z,0
2015-05-03T00:46:27.401Z,0
2015-05-03T00:46:45.697Z,0
2015-05-03T00:47:04.026Z,0
2015-05-03T00:47:22.356Z,0
2015-05-03T00:47:40.699Z,0
2015-05-03T00:47:59.028Z,0
2015-05-03T00:48:17.356Z,0
2015-05-03T00:48:35.718Z,0
2015-05-03T00:48:54.062Z,0
2015-05-03T00:49:12.390Z,0
2015-05-03T00:49:30.736Z,0
2015-05-03T00:49:49.064Z,0
2015-05-03T00:50:07.392Z,0
2015-05-03T00:50:25.754Z,0
2015-05-03T00:50:44.098Z,0
2015-05-03T00:51:02.411Z,0
2015-05-03T00:51:20.770Z,0
2015-05-03T00:51:39.101Z,0
2015-05-03T00:51:57.429Z,0
2015-05-03T00:52:15.773Z,0
2015-05-03T00:52:34.087Z,0
2015-05-03T00:52:52.447Z,0
2015-05-03T00:53:10.744Z,0
2015-05-03T00:53:29.074Z,0
2015-05-03T00:53:47.418Z,0
2015-05-03T00:54:05.746Z,0
2015-05-03T00:54:23.449Z,0
2015-05-03T00:54:41.796Z,0
2015-05-03T00:55:00.108Z,0
2015-05-03T00:55:18.452Z,0
2015-05-03T00:55:36.782Z,0
2015-05-03T00:55:55.110Z,0
2015-05-03T00:56:13.454Z,0
2015-05-03T00:56:31.766Z,0
2015-05-03T00:56:50.128Z,0
2015-05-03T00:57:08.456Z,0
2015-05-03T00:57:26.800Z,0
2015-05-03T00:57:45.146Z,0
2015-05-03T00:58:03.459Z,0
2015-05-03T00:58:21.818Z,0
2015-05-03T00:58:40.146Z,0
2015-05-03T00:58:58.492Z,0
2015-05-03T00:59:16.836Z,0
2015-05-03T00:59:35.226Z,0
2015-05-03T00:59:53.572Z,0
2015-05-03T01:00:11.947Z,0
2015-05-03T01:00:30.244Z,0
2015-05-03T01:00:48.590Z,0
2015-05-03T01:01:06.918Z,0
2015-05-03T01:01:25.246Z,0
2015-05-03T01:01:43.574Z,0
2015-05-03T01:02:01.937Z,0
2015-05-03T01:02:19.608Z,0
2015-05-03T01:02:37.937Z,0
2015-05-03T01:02:56.252Z,0
2015-05-03T01:03:14.611Z,0
2015-05-03T01:03:32.940Z,0
2015-05-03T01:03:51.269Z,0
2015-05-03T01:04:09.597Z,0
2015-05-03T01:04:27.909Z,0
2015-05-03T01:04:46.237Z,0
2015-05-03T01:05:04.569Z,0
2015-05-03T01:05:22.881Z,0
2015-05-03T01:05:41.256Z,0
2015-05-03T01:05:59.556Z,0
2015-05-03T01:06:17.884Z,0
2015-05-03T01:06:36.212Z,0
2015-05-03T01:06:54.558Z,0
2015-05-03T01:07:12.933Z,0
2015-05-03T01:07:31.261Z,0
2015-05-03T01:07:49.605Z,0
2015-05-03T01:08:07.919Z,0
2015-05-03T01:08:26.294Z,0
2015-05-03T01:08:44.622Z,0
2015-05-03T01:09:03.015Z,0
2015-05-03T01:09:21.343Z,0
2015-05-03T01:09:39.687Z,0
2015-05-03T01:09:58.017Z,0
2015-05-03T01:10:16.361Z,0
2015-05-03T01:10:34.689Z,0
2015-05-03T01:10:53.017Z,0
2015-05-03T01:11:11.317Z,0
2015-05-03T01:11:29.661Z,0
2015-05-03T01:11:47.989Z,0
2015-05-03T01:12:06.319Z,0
2015-05-03T01:12:24.663Z,0
2015-05-03T01:12:43.006Z,0
2015-05-03T01:13:01.338Z,0
2015-05-03T01:13:19.666Z,0
2015-05-03T01:13:37.994Z,0
2015-05-03T01:13:56.353Z,0
2015-05-03T01:14:14.683Z,0
2015-05-03T01:14:32.996Z,0
2015-05-03T01:14:51.340Z,0
2015-05-03T01:15:09.654Z,0
2015-05-03T01:15:27.357Z,0
2015-05-03T01:15:45.685Z,0
2015-05-03T01:16:04.063Z,0
2015-05-03T01:16:22.376Z,0
2015-05-03T01:16:40.704Z,0
2015-05-03T01:16:59.032Z,0
2015-05-03T01:17:17.362Z,0
2015-05-03T01:17:35.065Z,0
2015-05-03T01:17:53.393Z,0
2015-05-03T01:18:11.725Z,0
2015-05-03T01:18:30.053Z,0
2015-05-03T01:18:48.381Z,0
2015-05-03T01:19:06.709Z,0
2015-05-03T01:19:25.040Z,0
2015-05-03T01:19:43.399Z,0
2015-05-03T01:20:01.712Z,0
2015-05-03T01:20:20.042Z,0
2015-05-03T01:20:38.370Z,0
2015-05-03T01:20:56.714Z,0
2015-05-03T01:21:15.058Z,0
2015-05-03T01:21:33.388Z,0
2015-05-03T01:21:51.732Z,0
2015-05-03T01:22:10.075Z,0
2015-05-03T01:22:28.437Z,0
2015-05-03T01:22:46.796Z,0
2015-05-03T01:23:05.234Z,0
2015-05-03T01:23:23.627Z,0
2015-05-03T01:23:40.705Z,0
2015-05-03T01:23:59.033Z,0
2015-05-03T01:24:17.362Z,0
2015-05-03T01:24:35.723Z,0
2015-05-03T01:24:54.035Z,0
2015-05-03T01:25:12.364Z,0
2015-05-03T01:25:30.709Z,0
2015-05-03T01:25:48.428Z,0
2015-05-03T01:26:06.803Z,0
2015-05-03T01:26:25.165Z,0
2015-05-03T01:26:43.462Z,0
2015-05-03T01:27:01.790Z,0
2015-05-03T01:27:20.165Z,0
2015-05-03T01:27:38.496Z,0
2015-05-03T01:27:56.839Z,0
2015-05-03T01:28:15.152Z,0
2015-05-03T01:28:33.466Z,0
2015-05-03T01:28:51.857Z,0
2015-05-03T01:29:10.263Z,0
2015-05-03T01:29:28.579Z,0
2015-05-03T01:29:46.922Z,0
2015-05-03T01:30:05.251Z,0
2015-05-03T01:30:23.610Z,0
2015-05-03T01:30:41.940Z,0
2015-05-03T01:31:00.284Z,0
2015-05-03T01:31:18.612Z,0
2015-05-03T01:31:36.958Z,0
2015-05-03T01:31:55.286Z,0
2015-05-03T01:32:13.645Z,0
2015-05-03T01:32:31.976Z,0
2015-05-03T01:32:50.336Z,0
2015-05-03T01:33:08.679Z,0
2015-05-03T01:33:27.008Z,0
2015-05-03T01:33:45.338Z,0
2015-05-03T01:34:03.681Z,0
2015-05-03T01:34:22.025Z,0
2015-05-03T01:34:40.356Z,0
2015-05-03T01:34:58.700Z,0
2015-05-03T01:35:17.013Z,0
2015-05-03T01:35:35.342Z,0
2015-05-03T01:35:53.670Z,0
2015-05-03T01:36:12.029Z,0
2015-05-03T01:36:30.357Z,0
2015-05-03T01:36:48.704Z,0
2015-05-03T01:37:07.032Z,0
2015-05-03T01:37:25.345Z,0
2015-05-03T01:37:43.676Z,0
2015-05-03T01:38:02.020Z,0
2015-05-03T01:38:20.363Z,0
2015-05-03T01:38:38.709Z,0
2015-05-03T01:38:57.037Z,0
2015-05-03T01:39:15.365Z,0
2015-05-03T01:39:33.678Z,0
2015-05-03T01:39:52.025Z,0
2015-05-03T01:40:10.384Z,0
2015-05-03T01:40:28.759Z,0
2015-05-03T01:40:47.088Z,0
2015-05-03T01:41:05.447Z,0
2015-05-03T01:41:23.776Z,0
2015-05-03T01:41:42.119Z,0
2015-05-03T01:42:00.467Z,0
2015-05-03T01:42:18.795Z,0
2015-05-03T01:42:37.108Z,0
2015-05-03T01:42:55.500Z,0
2015-05-03T01:43:13.844Z,0
2015-05-03T01:43:32.188Z,0
2015-05-03T01:43:50.516Z,0
2015-05-03T01:44:08.847Z,0
2015-05-03T01:44:27.160Z,0
2015-05-03T01:44:45.628Z,0
2015-05-03T01:45:03.990Z,0
2015-05-03T01:45:22.318Z,0
2015-05-03T01:45:40.708Z,0
2015-05-03T01:45:59.021Z,0
2015-05-03T01:46:17.399Z,0
2015-05-03T01:46:35.790Z,0
2015-05-03T01:46:54.133Z,0
2015-05-03T01:47:12.448Z,0
2015-05-03T01:47:30.792Z,0
2015-05-03T01:47:49.167Z,0
2015-05-03T01:48:07.495Z,0
2015-05-03T01:48:25.825Z,0
2015-05-03T01:48:44.184Z,0
2015-05-03T01:49:02.559Z,0
2015-05-03T01:49:20.874Z,0
2015-05-03T01:49:39.186Z,0
2015-05-03T01:49:57.546Z,0
2015-05-03T01:50:15.860Z,0
2015-05-03T01:50:34.219Z,0
2015-05-03T01:50:52.532Z,0
2015-05-03T01:51:10.860Z,0
2015-05-03T01:51:29.207Z,0
2015-05-03T01:51:47.551Z,0
2015-05-03T01:52:05.910Z,0
2015-05-03T01:52:24.240Z,0
2015-05-03T01:52:41.912Z,0
2015-05-03T01:53:00.240Z,0
2015-05-03T01:53:18.570Z,0
2015-05-03T01:53:36.898Z,0
2015-05-03T01:53:55.242Z,0
2015-05-03T01:54:13.570Z,0
2015-05-03T01:54:31.917Z,0
2015-05-03T01:54:50.214Z,0
2015-05-03T01:55:08.558Z,0
2015-05-03T01:55:26.873Z,0
2015-05-03T01:55:45.217Z,0
2015-05-03T01:56:03.592Z,0
2015-05-03T01:56:21.922Z,0
2015-05-03T01:56:40.250Z,0
2015-05-03T01:56:58.594Z,0
2015-05-03T01:57:16.922Z,0
2015-05-03T01:57:35.252Z,0
2015-05-03T01:57:53.580Z,0
2015-05-03T01:58:11.955Z,0
2015-05-03T01:58:30.270Z,0
2015-05-03T01:58:48.613Z,0
2015-05-03T01:59:06.926Z,0
2015-05-03T01:59:25.256Z,0
2015-05-03T01:59:42.912Z,0
2015-05-03T02:00:01.256Z,0
2015-05-03T02:00:19.569Z,0
2015-05-03T02:00:37.915Z,0
2015-05-03T02:00:56.228Z,0
2015-05-03T02:01:14.540Z,0
2015-05-03T02:01:32.886Z,0
2015-05-03T02:01:51.214Z,0
2015-05-03T02:02:09.558Z,0
2015-05-03T02:02:27.888Z,0
2015-05-03T02:02:46.247Z,0
2015-05-03T02:03:04.576Z,0
2015-05-03T02:03:22.951Z,0
2015-05-03T02:03:41.266Z,0
2015-05-03T02:03:59.610Z,0
2015-05-03T02:04:17.922Z,0
2015-05-03T02:04:36.284Z,0
2015-05-03T02:04:54.612Z,0
2015-05-03T02:05:12.940Z,0
2015-05-03T02:05:31.287Z,0
2015-05-03T02:05:49.615Z,0
2015-05-03T02:06:07.927Z,0
2015-05-03T02:06:26.271Z,0
2015-05-03T02:06:44.696Z,0
2015-05-03T02:07:03.024Z,0
2015-05-03T02:07:21.352Z,0
2015-05-03T02:07:39.682Z,0
2015-05-03T02:07:58.010Z,0
2015-05-03T02:08:16.354Z,0
2015-05-03T02:08:34.716Z,0
2015-05-03T02:08:53.044Z,0
2015-05-03T02:09:11.356Z,0
2015-05-03T02:09:29.684Z,0
2015-05-03T02:09:48.014Z,0
2015-05-03T02:10:06.358Z,0
2015-05-03T02:10:24.671Z,0
2015-05-03T02:10:42.985Z,0
2015-05-03T02:11:01.313Z,0
2015-05-03T02:11:19.641Z,0
2015-05-03T02:11:37.970Z,0
2015-05-03T02:11:56.302Z,0
2015-05-03T02:12:14.677Z,0
2015-05-03T02:12:33.005Z,0
2015-05-03T02:12:51.365Z,0
2015-05-03T02:13:09.693Z,0
2015-05-03T02:13:28.021Z,0
2015-05-03T02:13:46.350Z,0
2015-05-03T02:14:04.682Z,0
2015-05-03T02:14:23.010Z,0
2015-05-03T02:14:41.338Z,0
2015-05-03T02:14:59.667Z,0
2015-05-03T02:15:18.011Z,0
2015-05-03T02:15:36.339Z,0
2015-05-03T02:15:54.651Z,0
2015-05-03T02:16:12.984Z,0
2015-05-03T02:16:31.312Z,0
2015-05-03T02:16:49.640Z,0
2015-05-03T02:17:07.969Z,0
2015-05-03T02:17:26.344Z,0
2015-05-03T02:17:44.672Z,0
2015-05-03T02:18:03.000Z,0
2015-05-03T02:18:21.331Z,0
2015-05-03T02:18:39.659Z,0
2015-05-03T02:18:57.988Z,0
2015-05-03T02:19:16.349Z,0
2015-05-03T02:19:34.677Z,0
2015-05-03T02:19:52.990Z,0
2015-05-03T02:20:11.336Z,0
2015-05-03T02:20:29.696Z,0
2015-05-03T02:20:48.024Z,0
2015-05-03T02:21:06.352Z,0
2015-05-03T02:21:24.682Z,0
2015-05-03T02:21:43.010Z,0
2015-05-03T02:22:01.354Z,0
2015-05-03T02:22:19.684Z,0
2015-05-03T02:22:38.012Z,0
2015-05-03T02:22:56.356Z,0
2015-05-03T02:23:14.703Z,0
2015-05-03T02:23:33.031Z,0
2015-05-03T02:23:51.359Z,0
2015-05-03T02:24:09.718Z,0
2015-05-03T02:24:28.048Z,0
2015-05-03T02:24:46.377Z,0
2015-05-03T02:25:04.720Z,0
2015-05-03T02:25:23.066Z,0
2015-05-03T02:25:41.394Z,0
2015-05-03T02:25:59.738Z,0
2015-05-03T02:26:18.084Z,0
2015-05-03T02:26:36.427Z,0
2015-05-03T02:26:54.756Z,0
2015-05-03T02:27:13.084Z,0
2015-05-03T02:27:31.430Z,0
2015-05-03T02:27:49.759Z,0
2015-05-03T02:28:08.118Z,0
2015-05-03T02:28:26.448Z,0
2015-05-03T02:28:44.776Z,0
2015-05-03T02:29:03.104Z,0
2015-05-03T02:29:21.435Z,0
2015-05-03T02:29:39.764Z,0
2015-05-03T02:29:58.092Z,0
2015-05-03T02:30:16.389Z,0
2015-05-03T02:30:34.719Z,0
2015-05-03T02:30:52.391Z,0
2015-05-03T02:31:10.719Z,0
2015-05-03T02:31:29.050Z,0
2015-05-03T02:31:47.378Z,0
2015-05-03T02:32:05.815Z,0
2015-05-03T02:32:23.427Z,0
2015-05-03T02:32:41.755Z,0
2015-05-03T02:33:00.099Z,0
2015-05-03T02:33:18.411Z,0
2015-05-03T02:33:36.117Z,0
2015-05-03T02:33:54.445Z,0
2015-05-03T02:34:12.774Z,0
2015-05-03T02:34:31.103Z,0
2015-05-03T02:34:49.431Z,0
2015-05-03T02:35:07.759Z,0
2015-05-03T02:35:26.106Z,0
2015-05-03T02:35:44.449Z,0
2015-05-03T02:36:02.778Z,0
2015-05-03T02:36:21.106Z,0
2015-05-03T02:36:39.421Z,0
2015-05-03T02:36:57.749Z,0
2015-05-03T02:37:16.062Z,0
2015-05-03T02:37:34.391Z,0
2015-05-03T02:37:52.719Z,0
2015-05-03T02:38:11.047Z,0
2015-05-03T02:38:29.394Z,0
2015-05-03T02:38:47.722Z,0
2015-05-03T02:39:06.050Z,0
2015-05-03T02:39:24.378Z,0
2015-05-03T02:39:42.709Z,0
2015-05-03T02:40:01.038Z,0
2015-05-03T02:40:19.428Z,0
2015-05-03T02:40:37.711Z,0
2015-05-03T02:40:56.040Z,0
2015-05-03T02:41:14.368Z,0
2015-05-03T02:41:32.727Z,0
2015-05-03T02:41:51.073Z,0
2015-05-03T02:42:09.448Z,0
2015-05-03T02:42:27.776Z,0
2015-05-03T02:42:46.123Z,0
2015-05-03T02:43:04.670Z,0
2015-05-03T02:43:22.779Z,0
2015-05-03T02:43:41.107Z,0
2015-05-03T02:43:59.453Z,0
2015-05-03T02:44:17.812Z,0
2015-05-03T02:44:36.140Z,0
2015-05-03T02:44:54.470Z,0
2015-05-03T02:45:12.814Z,0
2015-05-03T02:45:31.174Z,0
2015-05-03T02:45:49.533Z,0
2015-05-03T02:46:07.911Z,0
2015-05-03T02:46:26.239Z,0
2015-05-03T02:46:44.567Z,0
2015-05-03T02:47:02.897Z,0
2015-05-03T02:47:21.225Z,0
2015-05-03T02:47:39.600Z,0
2015-05-03T02:47:57.916Z,0
2015-05-03T02:48:16.260Z,0
2015-05-03T02:48:34.619Z,0
2015-05-03T02:48:52.963Z,0
2015-05-03T02:49:11.277Z,0
2015-05-03T02:49:29.621Z,0
2015-05-03T02:49:47.949Z,0
2015-05-03T02:50:06.326Z,0
2015-05-03T02:50:24.670Z,0
2015-05-03T02:50:42.998Z,0
2015-05-03T02:51:01.328Z,0
2015-05-03T02:51:19.656Z,0
2015-05-03T02:51:38.016Z,0
2015-05-03T02:51:56.359Z,0
2015-05-03T02:52:14.675Z,0
2015-05-03T02:52:33.019Z,0
2015-05-03T02:52:51.347Z,0
2015-05-03T02:53:09.724Z,0
2015-05-03T02:53:28.052Z,0
2015-05-03T02:53:46.380Z,0
2015-05-03T02:54:04.710Z,0
2015-05-03T02:54:23.054Z,0
2015-05-03T02:54:41.398Z,0
2015-05-03T02:54:59.726Z,0
2015-05-03T02:55:18.057Z,0
2015-05-03T02:55:36.416Z,0
2015-05-03T02:55:54.791Z,0
2015-05-03T02:56:13.154Z,0
2015-05-03T02:56:31.513Z,0
2015-05-03T02:56:49.841Z,0
2015-05-03T02:57:08.187Z,0
2015-05-03T02:57:26.531Z,0
2015-05-03T02:57:44.937Z,0
2015-05-03T02:58:03.265Z,0
2015-05-03T02:58:21.595Z,0
2015-05-03T02:58:39.923Z,0
2015-05-03T02:58:58.267Z,0
2015-05-03T02:59:16.598Z,0
2015-05-03T02:59:34.926Z,0
2015-05-03T02:59:53.286Z,0
2015-05-03T03:00:11.616Z,0
2015-05-03T03:00:29.960Z,0
2015-05-03T03:00:48.319Z,0
2015-05-03T03:01:06.647Z,0
2015-05-03T03:01:24.977Z,0
2015-05-03T03:01:43.337Z,0
2015-05-03T03:02:01.665Z,0
2015-05-03T03:02:19.996Z,0
2015-05-03T03:02:38.340Z,0
2015-05-03T03:02:56.683Z,0
2015-05-03T03:03:15.029Z,0
2015-05-03T03:03:33.420Z,0
2015-05-03T03:03:51.748Z,1
2015-05-03T03:04:10.076Z,0
2015-05-03T03:04:28.407Z,1
2015-05-03T03:04:46.766Z,1
2015-05-03T03:05:04.470Z,1
2015-05-03T03:05:22.128Z,1
2015-05-03T03:05:40.456Z,2
2015-05-03T03:05:58.784Z,2
2015-05-03T03:06:17.143Z,1
2015-05-03T03:06:35.489Z,2
2015-05-03T03:06:53.817Z,2
2015-05-03T03:07:12.145Z,2
2015-05-03T03:07:30.491Z,2
2015-05-03T03:07:48.851Z,2
2015-05-03T03:08:07.163Z,2
2015-05-03T03:08:25.491Z,2
2015-05-03T03:08:43.854Z,3
2015-05-03T03:09:02.166Z,3
2015-05-03T03:09:20.494Z,3
2015-05-03T03:09:38.824Z,3
2015-05-03T03:09:57.168Z,4
2015-05-03T03:10:15.496Z,4
2015-05-03T03:10:33.902Z,4
2015-05-03T03:10:52.249Z,4
2015-05-03T03:11:10.593Z,4
2015-05-03T03:11:28.905Z,5
2015-05-03T03:11:47.267Z,5
2015-05-03T03:12:05.611Z,5
2015-05-03T03:12:23.954Z,5
2015-05-03T03:12:42.284Z,6
2015-05-03T03:13:00.628Z,6
2015-05-03T03:13:18.956Z,7
2015-05-03T03:13:37.284Z,7
2015-05-03T03:13:55.647Z,7
2015-05-03T03:14:13.975Z,8
2015-05-03T03:14:31.678Z,8
2015-05-03T03:14:50.024Z,8
2015-05-03T03:15:08.399Z,14
2015-05-03T03:15:26.743Z,15
2015-05-03T03:15:45.104Z,15
2015-05-03T03:16:03.432Z,15
2015-05-03T03:16:21.760Z,16
2015-05-03T03:16:40.120Z,16
2015-05-03T03:16:58.451Z,16
2015-05-03T03:17:16.779Z,19
2015-05-03T03:17:35.107Z,20
2015-05-03T03:17:53.437Z,15
2015-05-03T03:18:11.765Z,15
2015-05-03T03:18:30.093Z,15
2015-05-03T03:18:48.455Z,16
2015-05-03T03:19:06.767Z,16
2015-05-03T03:19:25.095Z,17
2015-05-03T03:19:43.411Z,17
2015-05-03T03:20:01.755Z,18
2015-05-03T03:20:20.114Z,18
2015-05-03T03:20:38.473Z,19
2015-05-03T03:20:56.882Z,19
2015-05-03T03:21:15.210Z,20
2015-05-03T03:21:33.538Z,20
2015-05-03T03:21:51.869Z,21
2015-05-03T03:22:10.228Z,21
2015-05-03T03:22:28.556Z,22
2015-05-03T03:22:46.887Z,22
2015-05-03T03:23:05.215Z,23
2015-05-03T03:23:23.543Z,24
2015-05-03T03:23:41.918Z,24
2015-05-03T03:24:00.233Z,25
2015-05-03T03:24:18.577Z,25
2015-05-03T03:24:36.905Z,26
2015-05-03T03:24:55.219Z,27
2015-05-03T03:25:13.656Z,27
2015-05-03T03:25:31.984Z,28
2015-05-03T03:25:50.346Z,29
2015-05-03T03:26:08.721Z,29
2015-05-03T03:26:27.064Z,30
2015-05-03T03:26:45.411Z,31
2015-05-03T03:27:03.739Z,32
2015-05-03T03:27:22.099Z,32
2015-05-03T03:27:40.427Z,33
2015-05-03T03:27:58.804Z,33
2015-05-03T03:28:17.132Z,34
2015-05-03T03:28:35.476Z,35
2015-05-03T03:28:53.962Z,36
2015-05-03T03:29:12.290Z,36
2015-05-03T03:29:30.618Z,37
2015-05-03T03:29:48.981Z,38
2015-05-03T03:30:07.278Z,39
2015-05-03T03:30:25.653Z,40
2015-05-03T03:30:43.981Z,40
2015-05-03T03:31:02.296Z,41
2015-05-03T03:31:20.499Z,42
2015-05-03T03:31:38.843Z,43
2015-05-03T03:31:57.157Z,44
2015-05-03T03:32:15.578Z,44
2015-05-03T03:32:33.907Z,45
2015-05-03T03:32:52.269Z,46
2015-05-03T03:33:10.628Z,47
2015-05-03T03:33:28.956Z,48
2015-05-03T03:33:47.285Z,49
2015-05-03T03:34:05.615Z,49
2015-05-03T03:34:23.958Z,50
2015-05-03T03:34:42.271Z,51
2015-05-03T03:35:00.618Z,52
2015-05-03T03:35:18.961Z,53
2015-05-03T03:35:37.305Z,54
2015-05-03T03:35:55.635Z,55
2015-05-03T03:36:13.963Z,56
2015-05-03T03:36:32.292Z,57
2015-05-03T03:36:50.637Z,57
2015-05-03T03:37:08.950Z,59
2015-05-03T03:37:27.309Z,60
2015-05-03T03:37:45.622Z,60
2015-05-03T03:38:03.953Z,61
2015-05-03T03:38:22.281Z,62
2015-05-03T03:38:40.609Z,63
2015-05-03T03:38:58.939Z,64
2015-05-03T03:39:17.283Z,65
2015-05-03T03:39:35.627Z,66
2015-05-03T03:39:53.786Z,67
2015-05-03T03:40:12.130Z,68
2015-05-03T03:40:30.427Z,69
2015-05-03T03:40:48.770Z,70
2015-05-03T03:41:07.132Z,71
2015-05-03T03:41:25.491Z,72
2015-05-03T03:41:43.804Z,73
2015-05-03T03:42:02.149Z,74
2015-05-03T03:42:20.493Z,73
2015-05-03T03:42:38.837Z,70
2015-05-03T03:42:57.167Z,72
2015-05-03T03:43:15.495Z,73
2015-05-03T03:43:33.839Z,74
2015-05-03T03:43:52.170Z,75
2015-05-03T03:44:10.514Z,76
2015-05-03T03:44:28.264Z,77
2015-05-03T03:44:46.592Z,78
2015-05-03T03:45:05.000Z,79
2015-05-03T03:45:23.328Z,80
2015-05-03T03:45:41.656Z,81
2015-05-03T03:45:59.986Z,82
2015-05-03T03:46:18.377Z,83
2015-05-03T03:46:36.721Z,84
2015-05-03T03:46:55.035Z,85
2015-05-03T03:47:13.379Z,87
2015-05-03T03:47:31.692Z,88
2015-05-03T03:47:50.035Z,89
2015-05-03T03:48:08.381Z,90
2015-05-03T03:48:26.694Z,91
2015-05-03T03:48:45.022Z,92
2015-05-03T03:49:03.384Z,94
2015-05-03T03:49:21.681Z,95
2015-05-03T03:49:40.009Z,96
2015-05-03T03:49:58.340Z,97
2015-05-03T03:50:16.653Z,99
2015-05-03T03:50:34.981Z,100
2015-05-03T03:50:53.293Z,101
2015-05-03T03:51:11.622Z,102
2015-05-03T03:51:29.935Z,103
2015-05-03T03:51:48.357Z,105
2015-05-03T03:52:06.688Z,106
2015-05-03T03:52:25.016Z,108
2015-05-03T03:52:43.360Z,109
2015-05-03T03:53:01.799Z,111
2015-05-03T03:53:20.112Z,112
2015-05-03T03:53:38.456Z,113
2015-05-03T03:53:56.784Z,115
2015-05-03T03:54:15.115Z,116
2015-05-03T03:54:33.443Z,118
2015-05-03T03:54:51.787Z,119
2015-05-03T03:55:10.117Z,120
2015-05-03T03:55:28.445Z,122
2015-05-03T03:55:46.757Z,123
2015-05-03T03:56:05.072Z,125
2015-05-03T03:56:23.416Z,126
2015-05-03T03:56:41.072Z,128
2015-05-03T03:56:59.402Z,129
2015-05-03T03:57:17.715Z,131
2015-05-03T03:57:36.074Z,132
2015-05-03T03:57:54.402Z,134
2015-05-03T03:58:12.764Z,136
2015-05-03T03:58:31.108Z,137
2015-05-03T03:58:49.436Z,139
2015-05-03T03:59:07.782Z,140
2015-05-03T03:59:25.954Z,142
2015-05-03T03:59:44.282Z,143
2015-05-03T04:00:02.659Z,145
2015-05-03T04:00:21.003Z,146
2015-05-03T04:00:39.347Z,148
2015-05-03T04:00:57.643Z,149
2015-05-03T04:01:15.990Z,151
2015-05-03T04:01:34.318Z,152
2015-05-03T04:01:52.646Z,154
2015-05-03T04:02:11.008Z,155
2015-05-03T04:02:29.320Z,157
2015-05-03T04:02:47.648Z,158
2015-05-03T04:03:06.041Z,160
2015-05-03T04:03:24.354Z,162
2015-05-03T04:03:42.713Z,163
2015-05-03T04:04:01.057Z,165
2015-05-03T04:04:19.372Z,166
2015-05-03T04:04:37.716Z,168
2015-05-03T04:04:56.028Z,169
2015-05-03T04:05:14.359Z,171
2015-05-03T04:05:32.718Z,172
2015-05-03T04:05:51.046Z,174
2015-05-03T04:06:09.237Z,175
2015-05-03T04:06:27.612Z,177
2015-05-03T04:06:45.940Z,179
2015-05-03T04:07:04.276Z,180
2015-05-03T04:07:22.620Z,182
2015-05-03T04:07:40.948Z,184
2015-05-03T04:07:59.276Z,185
2015-05-03T04:08:17.620Z,187
2015-05-03T04:08:35.948Z,189
2015-05-03T04:08:54.276Z,190
2015-05-03T04:09:12.622Z,192
2015-05-03T04:09:30.997Z,193
2015-05-03T04:09:49.357Z,195
2015-05-03T04:10:07.702Z,196
2015-05-03T04:10:26.030Z,198
2015-05-03T04:10:44.358Z,199
2015-05-03T04:11:02.702Z,200
2015-05-03T04:11:21.063Z,202
2015-05-03T04:11:39.391Z,204
2015-05-03T04:11:57.703Z,205
2015-05-03T04:12:16.029Z,207
2015-05-03T04:12:34.388Z,209
2015-05-03T04:12:52.716Z,211
2015-05-03T04:13:11.084Z,213
2015-05-03T04:13:29.380Z,214
2015-05-03T04:13:47.709Z,216
2015-05-03T04:14:06.084Z,218
2015-05-03T04:14:23.748Z,220
2015-05-03T04:14:42.092Z,221
2015-05-03T04:15:00.451Z,222
2015-05-03T04:15:18.802Z,224
2015-05-03T04:15:37.145Z,225
2015-05-03T04:15:55.489Z,226
2015-05-03T04:16:13.841Z,228
2015-05-03T04:16:32.216Z,228
2015-05-03T04:16:50.544Z,230
2015-05-03T04:17:08.903Z,230
2015-05-03T04:17:27.253Z,231
2015-05-03T04:17:45.581Z,231
2015-05-03T04:18:03.925Z,232
2015-05-03T04:18:22.273Z,232
2015-05-03T04:18:40.601Z,240
2015-05-03T04:18:58.960Z,252
2015-05-03T04:19:17.278Z,253
2015-05-03T04:19:35.637Z,254
2015-05-03T04:19:53.965Z,256
2015-05-03T04:20:12.297Z,257
2015-05-03T04:20:30.641Z,259
2015-05-03T04:20:48.985Z,261
2015-05-03T04:21:07.313Z,263
2015-05-03T04:21:25.645Z,264
2015-05-03T04:21:43.989Z,266
2015-05-03T04:22:02.301Z,268
2015-05-03T04:22:20.634Z,269
2015-05-03T04:22:38.962Z,270
2015-05-03T04:22:57.305Z,272
2015-05-03T04:23:15.620Z,273
2015-05-03T04:23:33.948Z,274
2015-05-03T04:23:52.276Z,275
2015-05-03T04:24:10.604Z,277
2015-05-03T04:24:28.952Z,278
2015-05-03T04:24:47.280Z,279
2015-05-03T04:25:05.593Z,279
2015-05-03T04:25:23.955Z,280
2015-05-03T04:25:42.283Z,281
2015-05-03T04:26:00.611Z,282
2015-05-03T04:26:18.927Z,283
2015-05-03T04:26:37.255Z,285
2015-05-03T04:26:55.567Z,286
2015-05-03T04:27:13.927Z,288